createdAt,value
2023-05-06T00:00:32.109Z,1.70
2023-05-06T00:03:00.299Z,1.50
2023-05-06T00:05:27.057Z,1.30
2023-05-06T00:07:53.663Z,1.38
2023-05-06T00:10:21.261Z,1.40
2023-05-06T00:12:47.883Z,1.50
2023-05-06T00:15:15.966Z,1.60
2023-05-06T00:17:45.532Z,1.40
2023-05-06T00:20:12.424Z,1.63
2023-05-06T00:22:39.345Z,1.33
2023-05-06T00:25:06.800Z,1.00
2023-05-06T00:27:33.647Z,1.40
2023-05-06T00:30:02.770Z,1.30
2023-05-06T00:32:30.021Z,1.10
2023-05-06T00:34:57.428Z,1.48
2023-05-06T00:37:24.112Z,1.40
2023-05-06T00:39:50.727Z,1.38
2023-05-06T00:42:20.764Z,1.05
2023-05-06T00:44:50.367Z,1.27
2023-05-06T00:47:23.686Z,1.40
2023-05-06T00:50:15.213Z,1.30
2023-05-06T00:53:00.065Z,1.17
2023-05-06T00:55:31.045Z,1.27
2023-05-06T00:57:58.690Z,1.45
2023-05-06T01:00:45.100Z,1.33
2023-05-06T01:03:17.899Z,1.40
2023-05-06T01:06:11.321Z,1.38
2023-05-06T01:09:16.796Z,1.30
2023-05-06T01:12:19.266Z,1.20
2023-05-06T01:15:18.889Z,1.30
2023-05-06T01:17:49.077Z,1.55
2023-05-06T01:20:18.198Z,1.40
2023-05-06T01:22:45.656Z,1.35
2023-05-06T01:25:22.431Z,1.13
2023-05-06T01:27:52.041Z,1.42
2023-05-06T01:30:20.994Z,1.55
2023-05-06T01:33:20.839Z,1.25
2023-05-06T01:36:01.501Z,1.10
2023-05-06T01:39:10.203Z,1.23
2023-05-06T01:41:41.770Z,1.13
2023-05-06T01:44:11.993Z,1.10
2023-05-06T01:46:42.399Z,1.33
2023-05-06T01:49:11.630Z,1.25
2023-05-06T01:51:41.636Z,1.45
2023-05-06T01:54:09.520Z,1.17
2023-05-06T01:56:38.164Z,1.25
2023-05-06T01:59:05.562Z,1.45
2023-05-06T02:01:32.781Z,1.30
2023-05-06T02:04:05.328Z,1.10
2023-05-06T02:06:32.771Z,0.93
2023-05-06T02:09:00.028Z,1.10
2023-05-06T02:11:29.009Z,1.08
2023-05-06T02:14:02.717Z,0.90
2023-05-06T02:16:36.010Z,1.00
2023-05-06T02:19:06.580Z,1.15
2023-05-06T02:21:38.435Z,1.00
2023-05-06T02:24:07.044Z,0.95
2023-05-06T02:26:34.396Z,1.42
2023-05-06T02:29:04.428Z,0.90
2023-05-06T02:31:32.127Z,1.40
2023-05-06T02:33:59.558Z,1.25
2023-05-06T02:36:27.709Z,1.00
2023-05-06T02:38:54.691Z,1.30
2023-05-06T02:41:22.064Z,1.25
2023-05-06T02:43:49.862Z,1.00
2023-05-06T02:46:17.363Z,1.33
2023-05-06T02:48:46.268Z,1.10
2023-05-06T02:51:14.488Z,1.15
2023-05-06T02:53:41.924Z,1.10
2023-05-06T02:56:08.945Z,0.90
2023-05-06T02:58:35.917Z,1.08
2023-05-06T03:01:02.832Z,1.27
2023-05-06T03:03:29.554Z,1.38
2023-05-06T03:05:56.265Z,1.02
2023-05-06T03:08:22.992Z,0.80
2023-05-06T03:10:50.871Z,0.90
2023-05-06T03:13:19.963Z,1.02
2023-05-06T03:15:52.211Z,0.90
2023-05-06T03:18:19.258Z,1.05
2023-05-06T03:20:48.763Z,1.20
2023-05-06T03:23:15.690Z,1.27
2023-05-06T03:25:42.453Z,1.13
2023-05-06T03:28:09.345Z,1.42
2023-05-06T03:30:37.760Z,1.33
2023-05-06T03:33:07.245Z,1.10
2023-05-06T03:35:34.394Z,1.30
2023-05-06T03:38:02.614Z,1.50
2023-05-06T03:40:37.706Z,1.38
2023-05-06T03:43:04.507Z,1.35
2023-05-06T03:45:31.336Z,1.30
2023-05-06T03:48:00.857Z,1.30
2023-05-06T03:50:30.430Z,1.50
2023-05-06T03:52:57.345Z,1.15
2023-05-06T03:55:26.558Z,1.27
2023-05-06T03:57:54.683Z,1.33
2023-05-06T04:00:21.737Z,1.25
2023-05-06T04:02:52.681Z,1.27
2023-05-06T04:05:25.676Z,1.35
2023-05-06T04:07:52.807Z,1.30
2023-05-06T04:10:19.665Z,1.02
2023-05-06T04:12:50.205Z,1.30
2023-05-06T04:15:23.254Z,1.30
2023-05-06T04:17:50.458Z,1.00
2023-05-06T04:20:17.533Z,1.08
2023-05-06T04:22:44.232Z,1.15
2023-05-06T04:25:12.242Z,1.20
2023-05-06T04:27:39.211Z,0.90
2023-05-06T04:30:08.510Z,1.50
2023-05-06T04:32:38.632Z,1.25
2023-05-06T04:35:06.733Z,1.20
2023-05-06T04:37:34.204Z,1.70
2023-05-06T04:40:17.949Z,1.17
2023-05-06T04:42:47.553Z,1.15
2023-05-06T04:45:19.901Z,1.33
2023-05-06T04:47:52.503Z,0.80
2023-05-06T04:50:21.811Z,1.30
2023-05-06T04:52:51.996Z,1.40
2023-05-06T04:55:23.258Z,1.42
2023-05-06T04:57:52.710Z,1.67
2023-05-06T05:00:20.102Z,1.23
2023-05-06T05:02:47.565Z,1.10
2023-05-06T05:05:16.762Z,1.25
2023-05-06T05:07:46.420Z,1.10
2023-05-06T05:10:14.322Z,1.65
2023-05-06T05:12:41.474Z,1.40
2023-05-06T05:15:09.106Z,1.50
2023-05-06T05:17:36.173Z,1.45
2023-05-06T05:20:04.845Z,1.08
2023-05-06T05:22:32.343Z,1.15
2023-05-06T05:25:00.039Z,0.98
2023-05-06T05:27:27.415Z,1.20
2023-05-06T05:29:56.959Z,1.40
2023-05-06T05:32:24.013Z,1.30
2023-05-06T05:34:50.940Z,1.20
2023-05-06T05:37:18.609Z,1.05
2023-05-06T05:39:45.657Z,1.10
2023-05-06T05:42:15.371Z,1.30
2023-05-06T05:44:44.509Z,1.55
2023-05-06T05:47:11.429Z,1.65
2023-05-06T05:49:39.200Z,1.10
2023-05-06T05:52:07.300Z,1.23
2023-05-06T05:54:34.341Z,1.35
2023-05-06T05:57:01.794Z,1.38
2023-05-06T05:59:30.492Z,1.30
2023-05-06T06:02:06.489Z,1.67
2023-05-06T06:04:37.428Z,1.40
2023-05-06T06:07:12.450Z,1.17
2023-05-06T06:09:42.594Z,0.90
2023-05-06T06:12:09.935Z,1.10
2023-05-06T06:14:40.294Z,1.13
2023-05-06T06:17:10.796Z,0.70
2023-05-06T06:19:38.945Z,1.00
2023-05-06T06:22:06.645Z,0.93
2023-05-06T06:24:38.429Z,1.25
2023-05-06T06:27:08.968Z,1.02
2023-05-06T06:29:39.280Z,1.10
2023-05-06T06:32:17.285Z,1.10
2023-05-06T06:34:44.572Z,1.45
2023-05-06T06:37:12.586Z,0.90
2023-05-06T06:39:42.072Z,1.27
2023-05-06T06:42:09.031Z,1.13
2023-05-06T06:44:41.097Z,1.00
2023-05-06T06:47:16.177Z,1.02
2023-05-06T06:49:45.660Z,1.25
2023-05-06T06:52:12.576Z,1.00
2023-05-06T06:54:40.102Z,0.90
2023-05-06T06:57:08.603Z,1.10
2023-05-06T06:59:37.956Z,1.00
2023-05-06T07:02:07.513Z,1.25
2023-05-06T07:04:37.541Z,1.13
2023-05-06T07:07:05.243Z,1.13
2023-05-06T07:09:35.035Z,0.70
2023-05-06T07:12:15.690Z,1.00
2023-05-06T07:17:26.460Z,1.33
2023-05-06T07:19:55.477Z,1.10
2023-05-06T07:22:22.371Z,1.20
2023-05-06T07:24:57.481Z,1.00
2023-05-06T07:27:41.764Z,0.98
2023-05-06T07:30:08.933Z,1.27
2023-05-06T07:32:37.036Z,1.23
2023-05-06T07:35:06.852Z,0.90
2023-05-06T07:37:43.407Z,1.10
2023-05-06T07:40:14.290Z,0.90
2023-05-06T07:42:51.878Z,1.00
2023-05-06T07:45:25.485Z,1.30
2023-05-06T07:48:04.895Z,1.10
2023-05-06T07:50:33.483Z,1.25
2023-05-06T07:53:00.649Z,1.00
2023-05-06T07:55:51.221Z,0.98
2023-05-06T07:58:25.620Z,1.08
2023-05-06T08:00:55.052Z,1.15
2023-05-06T08:03:56.078Z,1.08
2023-05-06T08:06:55.870Z,0.80
2023-05-06T08:09:38.345Z,0.98
2023-05-06T08:12:11.086Z,1.10
2023-05-06T08:14:53.778Z,1.00
2023-05-06T08:17:24.665Z,1.35
2023-05-06T08:19:57.154Z,0.90
2023-05-06T08:22:28.566Z,1.00
2023-05-06T08:25:16.638Z,1.05
2023-05-06T08:28:36.716Z,1.13
2023-05-06T08:31:11.228Z,0.98
2023-05-06T08:33:41.527Z,0.90
2023-05-06T08:36:24.331Z,1.13
2023-05-06T08:39:01.718Z,1.00
2023-05-06T08:41:36.774Z,1.08
2023-05-06T08:44:24.562Z,1.02
2023-05-06T08:47:08.262Z,1.00
2023-05-06T08:53:32.339Z,0.82
2023-05-06T08:59:56.364Z,0.98
2023-05-06T09:06:02.364Z,1.15
2023-05-06T09:08:29.605Z,1.08
2023-05-06T09:15:16.429Z,1.20
2023-05-06T09:17:55.476Z,1.30
2023-05-06T09:21:47.138Z,1.45
2023-05-06T09:24:24.174Z,1.10
2023-05-06T09:26:58.059Z,1.00
2023-05-06T09:29:30.196Z,1.33
2023-05-06T09:32:01.289Z,1.30
2023-05-06T09:34:32.050Z,0.90
2023-05-06T09:37:16.727Z,0.90
2023-05-06T09:39:43.473Z,1.17
2023-05-06T09:42:10.259Z,0.90
2023-05-06T09:44:37.902Z,0.98
2023-05-06T09:47:07.457Z,1.40
2023-05-06T09:50:09.801Z,1.20
2023-05-06T09:52:39.506Z,1.27
2023-05-06T09:55:07.363Z,1.13
2023-05-06T09:57:34.924Z,1.00
2023-05-06T10:00:03.448Z,1.08
2023-05-06T10:02:41.369Z,1.00
2023-05-06T10:05:13.128Z,1.15
2023-05-06T10:07:44.047Z,1.02
2023-05-06T10:10:19.401Z,1.08
2023-05-06T10:15:28.610Z,1.27
2023-05-06T10:18:00.637Z,1.10
2023-05-06T10:20:31.140Z,0.82
2023-05-06T10:23:36.545Z,0.98
2023-05-06T10:26:14.219Z,1.20
2023-05-06T10:29:04.684Z,0.90
2023-05-06T10:31:58.355Z,1.00
2023-05-06T10:34:26.214Z,1.10
2023-05-06T10:36:57.708Z,2.80
2023-05-06T10:39:26.050Z,2.00
2023-05-06T10:41:56.748Z,1.10
2023-05-06T10:44:58.574Z,1.38
2023-05-06T10:47:28.016Z,1.02
2023-05-06T10:50:26.240Z,1.05
2023-05-06T10:52:58.997Z,1.02
2023-05-06T10:55:28.054Z,1.48
2023-05-06T10:58:11.089Z,1.15
2023-05-06T11:00:38.197Z,1.48
2023-05-06T11:03:12.554Z,0.93
2023-05-06T11:05:52.700Z,1.10
2023-05-06T11:08:26.610Z,1.05
2023-05-06T11:11:21.390Z,1.27
2023-05-06T11:13:53.058Z,1.35
2023-05-06T11:16:51.710Z,1.40
2023-05-06T11:19:28.320Z,1.10
2023-05-06T11:21:57.529Z,1.10
2023-05-06T11:24:31.549Z,1.50
2023-05-06T11:27:00.221Z,1.30
2023-05-06T11:29:27.092Z,1.10
2023-05-06T11:31:54.176Z,1.52
2023-05-06T11:34:27.214Z,1.48
2023-05-06T11:37:03.048Z,1.23
2023-05-06T11:39:36.495Z,1.13
2023-05-06T11:42:09.139Z,1.23
2023-05-06T11:44:38.217Z,1.75
2023-05-06T11:47:09.366Z,1.50
2023-05-06T11:49:37.232Z,1.30
2023-05-06T11:52:04.706Z,1.20
2023-05-06T11:54:35.181Z,1.38
2023-05-06T11:57:02.131Z,1.23
2023-05-06T11:59:33.778Z,1.30
2023-05-06T12:02:04.063Z,1.08
2023-05-06T12:04:46.376Z,1.23
2023-05-06T12:07:14.844Z,1.38
2023-05-06T12:09:47.338Z,1.63
2023-05-06T12:12:19.996Z,2.80
2023-05-06T12:14:49.249Z,2.60
2023-05-06T12:17:16.637Z,2.15
2023-05-06T12:19:43.329Z,1.67
2023-05-06T12:22:24.717Z,1.50
2023-05-06T12:24:52.006Z,1.35
2023-05-06T12:27:31.728Z,2.00
2023-05-06T12:29:58.583Z,1.20
2023-05-06T12:32:25.236Z,1.00
2023-05-06T12:34:52.063Z,1.10
2023-05-06T12:37:29.335Z,1.20
2023-05-06T12:40:07.836Z,1.30
2023-05-06T12:42:34.784Z,1.30
2023-05-06T12:45:13.572Z,1.50
2023-05-06T12:47:40.247Z,1.40
2023-05-06T12:50:39.832Z,1.45
2023-05-06T12:53:09.236Z,1.50
2023-05-06T12:55:39.966Z,1.52
2023-05-06T12:58:19.712Z,1.77
2023-05-06T13:00:46.477Z,1.58
2023-05-06T13:03:13.956Z,1.30
2023-05-06T13:05:40.877Z,0.95
2023-05-06T13:08:07.785Z,1.45
2023-05-06T13:10:34.428Z,1.23
2023-05-06T13:13:01.023Z,1.50
2023-05-06T13:15:27.812Z,1.13
2023-05-06T13:17:54.624Z,2.03
2023-05-06T13:20:21.705Z,1.30
2023-05-06T13:22:54.208Z,0.98
2023-05-06T13:25:21.898Z,1.23
2023-05-06T13:27:50.922Z,1.20
2023-05-06T13:30:17.698Z,1.10
2023-05-06T13:32:45.766Z,1.02
2023-05-06T13:35:12.649Z,1.05
2023-05-06T13:37:39.674Z,1.20
2023-05-06T13:40:06.894Z,1.50
2023-05-06T13:42:34.647Z,1.23
2023-05-06T13:45:01.832Z,1.48
2023-05-06T13:47:28.648Z,1.15
2023-05-06T13:49:57.687Z,0.90
2023-05-06T13:52:27.877Z,1.15
2023-05-06T13:54:54.692Z,1.60
2023-05-06T13:57:22.401Z,1.17
2023-05-06T13:59:49.159Z,1.13
2023-05-06T14:02:16.907Z,1.10
2023-05-06T14:04:44.493Z,1.40
2023-05-06T14:07:11.481Z,1.50
2023-05-06T14:09:38.305Z,1.35
2023-05-06T14:12:05.839Z,1.25
2023-05-06T14:14:32.472Z,0.90
2023-05-06T14:16:59.179Z,1.45
2023-05-06T14:19:26.150Z,1.20
2023-05-06T14:21:52.844Z,1.05
2023-05-06T14:24:19.536Z,1.30
2023-05-06T14:26:51.614Z,1.23
2023-05-06T14:29:18.789Z,1.73
2023-05-06T14:31:45.607Z,1.00
2023-05-06T14:34:12.213Z,1.20
2023-05-06T14:36:38.897Z,1.20
2023-05-06T14:39:05.633Z,1.00
2023-05-06T14:41:32.363Z,1.73
2023-05-06T14:43:59.050Z,1.30
2023-05-06T14:46:29.378Z,1.75
2023-05-06T14:48:56.532Z,1.85
2023-05-06T14:51:23.280Z,1.75
2023-05-06T14:53:49.952Z,1.38
2023-05-06T14:56:16.659Z,1.65
2023-05-06T14:58:43.455Z,1.20
2023-05-06T15:01:10.155Z,1.50
2023-05-06T15:03:37.096Z,1.70
2023-05-06T15:06:04.077Z,2.08
2023-05-06T15:08:30.966Z,1.38
2023-05-06T15:10:57.662Z,1.10
2023-05-06T15:13:31.729Z,1.20
2023-05-06T15:16:01.054Z,1.40
2023-05-06T15:18:37.703Z,1.13
2023-05-06T15:21:04.757Z,1.00
2023-05-06T15:23:31.630Z,1.60
2023-05-06T15:25:58.557Z,1.33
2023-05-06T15:28:25.548Z,1.65
2023-05-06T15:30:52.211Z,1.70
2023-05-06T15:33:19.296Z,1.50
2023-05-06T15:35:46.254Z,1.20
2023-05-06T15:38:13.127Z,1.55
2023-05-06T15:40:45.289Z,1.00
2023-05-06T15:43:13.865Z,0.98
2023-05-06T15:45:47.280Z,1.30
2023-05-06T15:48:14.258Z,1.40
2023-05-06T15:53:24.633Z,1.30
2023-05-06T15:55:56.567Z,1.27
2023-05-06T15:58:28.890Z,1.33
2023-05-06T16:00:55.794Z,1.60
2023-05-06T16:03:22.878Z,1.35
2023-05-06T16:05:50.101Z,1.45
2023-05-06T16:08:16.967Z,1.40
2023-05-06T16:10:43.778Z,1.38
2023-05-06T16:13:11.251Z,1.55
2023-05-06T16:15:39.298Z,1.50
2023-05-06T16:18:06.003Z,2.10
2023-05-06T16:20:33.041Z,1.67
2023-05-06T16:23:00.189Z,1.50
2023-05-06T16:25:26.911Z,1.40
2023-05-06T16:27:53.716Z,1.52
2023-05-06T17:01:57.682Z,1.75
2023-05-06T17:16:49.287Z,1.65
2023-05-06T17:20:28.741Z,2.08
2023-05-06T17:24:20.646Z,1.73
2023-05-06T17:27:04.266Z,1.40
2023-05-06T17:29:41.390Z,1.60
2023-05-06T17:32:38.295Z,1.38
2023-05-06T17:35:09.015Z,1.73
2023-05-06T17:37:51.559Z,1.50
2023-05-06T17:40:26.684Z,1.75
2023-05-06T17:43:00.232Z,1.90
2023-05-06T17:45:29.721Z,1.98
2023-05-06T17:47:56.871Z,1.30
2023-05-06T17:50:38.780Z,1.60
2023-05-06T17:53:07.652Z,1.65
2023-05-06T17:55:34.566Z,1.63
2023-05-06T17:58:01.531Z,1.60
2023-05-06T18:00:31.271Z,1.90
2023-05-06T18:02:58.165Z,1.60
2023-05-06T18:05:27.853Z,1.50
2023-05-06T18:07:54.624Z,1.85
2023-05-06T18:10:33.341Z,2.47
2023-05-06T18:13:05.335Z,1.40
2023-05-06T18:16:00.174Z,1.45
2023-05-06T18:18:30.213Z,1.52
2023-05-06T18:20:57.120Z,2.03
2023-05-06T18:23:23.921Z,1.70
2023-05-06T18:25:52.195Z,1.52
2023-05-06T18:28:19.311Z,1.42
2023-05-06T18:30:49.303Z,2.00
2023-05-06T18:33:21.748Z,1.58
2023-05-06T18:35:49.137Z,1.45
2023-05-06T18:38:15.896Z,1.52
2023-05-06T18:40:43.801Z,1.63
2023-05-06T18:43:10.614Z,1.60
2023-05-06T18:45:37.848Z,1.50
2023-05-06T18:48:05.261Z,1.65
2023-05-06T18:50:32.078Z,2.10
2023-05-06T18:52:59.006Z,2.17
2023-05-06T18:55:25.999Z,2.10
2023-05-06T18:57:52.924Z,2.30
2023-05-06T19:00:21.838Z,2.50
2023-05-06T19:02:49.027Z,2.30
2023-05-06T19:05:16.443Z,2.20
2023-05-06T19:07:43.454Z,2.22
2023-05-06T19:10:10.464Z,2.40
2023-05-06T19:12:37.215Z,2.00
2023-05-06T19:15:04.320Z,2.03
2023-05-06T19:17:31.168Z,1.98
2023-05-06T19:19:57.872Z,1.92
2023-05-06T19:22:24.698Z,2.05
2023-05-06T19:24:52.294Z,1.80
2023-05-06T19:27:19.261Z,1.63
2023-05-06T19:29:46.643Z,1.88
2023-05-06T19:32:13.377Z,1.80
2023-05-06T19:34:40.141Z,1.90
2023-05-06T19:37:06.941Z,2.25
2023-05-06T19:39:33.638Z,1.70
2023-05-06T19:42:00.751Z,1.60
2023-05-06T19:44:27.560Z,1.48
2023-05-06T19:46:54.614Z,2.05
2023-05-06T19:49:23.833Z,1.38
2023-05-06T19:51:56.305Z,1.70
2023-05-06T19:54:23.147Z,1.55
2023-05-06T19:56:52.519Z,1.80
2023-05-06T19:59:19.185Z,1.70
2023-05-06T20:01:46.065Z,1.40
2023-05-06T20:04:13.185Z,1.58
2023-05-06T20:06:40.010Z,1.60
2023-05-06T20:09:06.804Z,1.80
2023-05-06T20:11:33.605Z,1.95
2023-05-06T20:14:00.412Z,1.65
2023-05-06T20:16:29.541Z,1.45
2023-05-06T20:18:56.475Z,2.00
2023-05-06T20:21:23.444Z,1.98
2023-05-06T20:23:50.129Z,2.28
2023-05-06T20:26:19.757Z,1.95
2023-05-06T20:28:48.454Z,2.00
2023-05-06T20:31:15.470Z,2.22
2023-05-06T20:33:42.416Z,2.10
2023-05-06T20:36:09.263Z,2.05
2023-05-06T20:38:37.746Z,2.25
2023-05-06T20:41:04.576Z,2.10
2023-05-06T20:43:32.689Z,2.50
2023-05-06T20:45:59.388Z,2.08
2023-05-06T20:48:27.839Z,2.47
2023-05-06T20:50:57.039Z,2.60
2023-05-06T20:53:24.084Z,1.85
2023-05-06T20:55:51.261Z,2.15
2023-05-06T20:58:21.324Z,2.28
2023-05-06T21:00:48.245Z,2.08
2023-05-06T21:03:17.549Z,2.22
2023-05-06T21:05:45.791Z,2.10
2023-05-06T21:08:12.924Z,2.10
2023-05-06T21:10:40.513Z,2.05
2023-05-06T21:13:08.025Z,2.17
2023-05-06T21:15:38.230Z,2.10
2023-05-06T21:18:05.126Z,2.03
2023-05-06T21:20:31.905Z,2.65
2023-05-06T21:22:58.803Z,2.65
2023-05-06T21:25:25.663Z,2.72
2023-05-06T21:27:52.422Z,3.03
2023-05-06T21:30:19.298Z,3.05
2023-05-06T21:32:46.550Z,2.20
2023-05-06T21:35:13.528Z,3.00
2023-05-06T21:37:40.252Z,2.60
2023-05-06T21:40:07.562Z,2.40
2023-05-06T21:42:34.259Z,2.70
2023-05-06T21:45:01.027Z,2.20
2023-05-06T21:47:27.838Z,2.95
2023-05-06T21:49:54.693Z,2.47
2023-05-06T21:52:21.564Z,2.25
2023-05-06T21:54:48.274Z,2.47
2023-05-06T21:57:14.993Z,2.53
2023-05-06T21:59:41.644Z,2.72
2023-05-06T22:02:08.443Z,2.65
2023-05-06T22:04:35.118Z,2.42
2023-05-06T22:07:01.777Z,2.72
2023-05-06T22:09:28.700Z,2.63
2023-05-06T22:11:55.836Z,2.70
2023-05-06T22:14:27.004Z,2.53
2023-05-06T22:16:57.227Z,2.35
2023-05-06T22:19:23.878Z,2.35
2023-05-06T22:21:50.643Z,2.20
2023-05-06T22:24:17.303Z,2.28
2023-05-06T22:26:43.963Z,2.38
2023-05-06T22:29:10.630Z,2.55
2023-05-06T22:31:37.480Z,2.42
2023-05-06T22:34:04.732Z,2.33
2023-05-06T22:36:34.528Z,2.30
2023-05-06T22:39:01.802Z,2.35
2023-05-06T22:41:29.906Z,2.30
2023-05-06T22:43:57.308Z,1.95
2023-05-06T22:46:23.982Z,2.25
2023-05-06T22:48:51.181Z,1.90
2023-05-06T22:51:17.872Z,1.90
2023-05-06T22:53:45.179Z,2.20
2023-05-06T22:56:11.887Z,2.22
2023-05-06T22:58:38.531Z,2.20
2023-05-06T23:01:07.328Z,1.95
2023-05-06T23:03:35.512Z,1.90
2023-05-06T23:06:03.931Z,2.17
2023-05-06T23:08:30.718Z,1.85
2023-05-06T23:10:57.327Z,2.58
2023-05-06T23:13:24.033Z,1.98
2023-05-06T23:15:50.858Z,1.90
2023-05-06T23:18:17.613Z,2.25
2023-05-06T23:20:44.451Z,2.13
2023-05-06T23:23:11.026Z,1.90
2023-05-06T23:25:37.850Z,2.15
2023-05-06T23:28:05.019Z,2.05
2023-05-06T23:30:31.757Z,2.20
2023-05-06T23:32:58.553Z,2.60
2023-05-06T23:35:25.924Z,1.90
2023-05-06T23:37:52.510Z,2.30
2023-05-06T23:40:19.217Z,2.22
2023-05-06T23:42:46.134Z,2.05
2023-05-06T23:45:12.881Z,2.38
2023-05-06T23:47:39.956Z,2.30
2023-05-06T23:50:07.029Z,2.40
2023-05-06T23:52:33.746Z,2.45
2023-05-06T23:55:00.352Z,2.10
2023-05-06T23:57:26.979Z,2.70
2023-05-06T23:59:53.594Z,2.00
